Time;durP1;ratioP1;P1;durP2;ratioP2;P2;SDS_P1;SDS_P2;PMS_P1;PMS_P2;Temp;Humidity;BMP_temperature;BMP_pressure;BME280_temperature;BME280_humidity;BME280_pressure;Samples;Min_cycle;Max_cycle;Signal;HPM_P1;HPM_P2
2022/01/07 00:00:55;;;;;;;25.60;9.00;;;3.40;99.90;;;;;;5056422;28;20120;-68
2022/01/07 00:03:22;;;;;;;23.48;8.90;;;3.40;99.90;;;;;;5036931;28;20438;-68
2022/01/07 00:05:47;;;;;;;26.20;8.90;;;3.40;99.90;;;;;;5056378;28;20045;-68
2022/01/07 00:08:13;;;;;;;19.45;9.50;;;3.40;99.90;;;;;;5036454;28;20199;-69
2022/01/07 00:10:39;;;;;;;20.20;9.07;;;3.40;99.90;;;;;;5056317;28;20124;-68
2022/01/07 00:13:04;;;;;;;17.55;9.25;;;3.40;99.90;;;;;;5056260;28;20090;-66
2022/01/07 00:15:30;;;;;;;22.58;9.27;;;3.40;99.90;;;;;;5035415;28;20131;-69
2022/01/07 00:17:56;;;;;;;26.20;8.77;;;3.40;99.90;;;;;;5032991;28;20044;-68
2022/01/07 00:20:21;;;;;;;22.98;8.80;;;3.40;99.90;;;;;;5035822;28;20049;-68
2022/01/07 00:22:48;;;;;;;21.13;7.93;;;3.40;99.90;;;;;;5033264;28;20049;-68
2022/01/07 00:25:14;;;;;;;21.02;8.95;;;3.40;99.90;;;;;;5031789;28;20052;-67
2022/01/07 00:27:40;;;;;;;18.60;7.65;;;3.40;99.90;;;;;;5032806;28;20052;-67
2022/01/07 00:30:08;;;;;;;18.83;8.65;;;3.40;99.90;;;;;;5055993;28;20339;-69
2022/01/07 00:32:34;;;;;;;22.58;8.30;;;3.40;99.90;;;;;;5055884;28;20469;-68
2022/01/07 00:34:59;;;;;;;19.92;8.20;;;3.40;99.90;;;;;;5035030;28;20045;-67
2022/01/07 00:37:25;;;;;;;21.90;8.25;;;3.40;99.90;;;;;;5050731;28;20102;-68
2022/01/07 00:39:50;;;;;;;20.27;8.77;;;3.40;99.90;;;;;;5035011;28;20077;-67
2022/01/07 00:42:16;;;;;;;23.25;8.43;;;3.40;99.90;;;;;;5049783;28;20049;-69
2022/01/07 00:44:42;;;;;;;20.50;8.68;;;3.40;99.90;;;;;;5034883;28;20049;-70
2022/01/07 00:47:07;;;;;;;19.20;7.03;;;3.40;99.90;;;;;;5049766;28;20380;-69
2022/01/07 00:49:33;;;;;;;18.35;8.02;;;3.40;99.90;;;;;;5018320;28;20124;-67
2022/01/07 00:52:01;;;;;;;20.38;8.07;;;3.40;99.90;;;;;;5029551;28;20519;-68
2022/01/07 00:54:27;;;;;;;17.40;8.05;;;3.40;99.90;;;;;;5037576;28;20045;-67
2022/01/07 00:56:53;;;;;;;19.85;8.18;;;3.30;99.90;;;;;;5046919;28;20045;-68
2022/01/07 00:59:19;;;;;;;19.40;8.60;;;3.30;99.90;;;;;;5039353;28;20041;-68
2022/01/07 01:01:46;;;;;;;17.80;7.93;;;3.30;99.90;;;;;;5055247;28;20045;-68
2022/01/07 01:04:12;;;;;;;22.42;9.00;;;3.20;99.90;;;;;;5034867;28;20053;-68
2022/01/07 01:06:40;;;;;;;17.85;8.40;;;3.20;99.90;;;;;;5049471;28;20052;-69
2022/01/07 01:09:07;;;;;;;21.40;8.88;;;3.20;99.90;;;;;;5034335;28;20111;-66
2022/01/07 01:11:33;;;;;;;26.65;8.52;;;3.10;99.90;;;;;;5032037;28;20053;-67
2022/01/07 01:13:58;;;;;;;23.83;8.82;;;3.10;99.90;;;;;;5034355;28;20072;-69
2022/01/07 01:16:24;;;;;;;26.63;8.68;;;3.10;99.90;;;;;;5049385;28;20051;-68
2022/01/07 01:18:49;;;;;;;19.63;8.52;;;3.10;99.90;;;;;;5054801;28;20106;-67
2022/01/07 01:21:15;;;;;;;16.95;8.90;;;3.00;99.90;;;;;;5055140;28;20041;-68
2022/01/07 01:23:44;;;;;;;23.70;9.27;;;3.00;99.90;;;;;;5034027;28;20046;-69
2022/01/07 01:26:11;;;;;;;19.83;8.48;;;3.00;99.90;;;;;;5054634;28;20059;-67
2022/01/07 01:28:36;;;;;;;19.23;8.70;;;3.10;99.90;;;;;;5033842;28;20515;-69
2022/01/07 01:31:02;;;;;;;24.80;9.18;;;3.00;99.90;;;;;;5032409;28;20046;-66
2022/01/07 01:33:27;;;;;;;26.05;9.30;;;3.00;99.90;;;;;;5034163;28;20055;-66
2022/01/07 01:35:53;;;;;;;21.83;9.65;;;2.90;99.90;;;;;;5050360;28;20377;-67
2022/01/07 01:38:18;;;;;;;21.92;9.30;;;2.90;99.90;;;;;;5034264;28;20077;-70
2022/01/07 01:40:44;;;;;;;21.77;10.00;;;2.90;99.90;;;;;;5049334;28;20132;-67
2022/01/07 01:43:09;;;;;;;26.75;9.57;;;2.90;99.90;;;;;;5054258;28;20045;-66
2022/01/07 01:45:35;;;;;;;24.77;9.73;;;2.80;99.90;;;;;;5055075;28;20044;-67
2022/01/07 01:48:01;;;;;;;19.90;10.05;;;2.80;99.90;;;;;;5054328;28;20053;-68
2022/01/07 01:50:26;;;;;;;25.17;9.73;;;2.80;99.90;;;;;;5054228;28;20134;-69
2022/01/07 01:52:54;;;;;;;21.35;9.60;;;2.80;99.90;;;;;;5054680;28;20045;-69
2022/01/07 01:55:22;;;;;;;24.55;10.48;;;2.80;99.90;;;;;;5044352;28;20056;-69
2022/01/07 01:57:48;;;;;;;25.13;9.95;;;2.80;99.90;;;;;;5022527;28;20454;-68
2022/01/07 02:00:14;;;;;;;25.60;10.75;;;2.80;99.90;;;;;;5031984;28;20146;-69
2022/01/07 02:02:40;;;;;;;21.33;9.45;;;2.80;99.90;;;;;;5056478;28;20179;-67
2022/01/07 02:05:06;;;;;;;25.85;10.13;;;2.70;99.90;;;;;;5058797;28;20070;-68
2022/01/07 02:07:35;;;;;;;24.45;10.45;;;2.70;99.90;;;;;;5038044;28;20048;-68
2022/01/07 02:10:03;;;;;;;25.80;10.80;;;2.70;99.90;;;;;;5053480;28;20063;-67
2022/01/07 02:12:28;;;;;;;25.90;11.25;;;2.80;99.90;;;;;;5037942;28;20057;-67
2022/01/07 02:14:56;;;;;;;24.63;11.32;;;2.70;99.90;;;;;;5036634;28;20472;-68
2022/01/07 02:17:22;;;;;;;21.88;11.77;;;2.70;99.90;;;;;;5058975;28;20436;-68
2022/01/07 02:19:49;;;;;;;24.08;10.82;;;2.70;99.90;;;;;;5040647;28;20045;-67
2022/01/07 02:22:17;;;;;;;25.02;11.65;;;2.70;99.90;;;;;;5037254;28;20045;-67
2022/01/07 02:24:44;;;;;;;23.30;11.23;;;3.10;99.90;;;;;;5053540;28;20064;-68
2022/01/07 02:27:12;;;;;;;21.65;12.02;;;2.70;99.90;;;;;;5032178;28;20377;-68
2022/01/07 02:29:37;;;;;;;25.15;11.68;;;2.70;99.90;;;;;;5056236;28;20099;-69
2022/01/07 02:32:03;;;;;;;22.75;11.52;;;2.60;99.90;;;;;;5037329;28;20053;-68
2022/01/07 02:34:29;;;;;;;21.23;12.43;;;2.60;99.90;;;;;;5054988;28;20518;-68
2022/01/07 02:36:54;;;;;;;26.95;10.77;;;2.60;99.90;;;;;;5058124;28;20052;-68
2022/01/07 02:39:20;;;;;;;21.60;12.30;;;2.60;99.90;;;;;;5057744;28;20503;-70
2022/01/07 02:41:46;;;;;;;22.80;13.30;;;2.60;99.90;;;;;;5058072;28;20452;-67
2022/01/07 02:44:11;;;;;;;23.08;12.60;;;2.60;99.90;;;;;;5058035;28;20370;-70
2022/01/07 02:46:37;;;;;;;29.80;13.60;;;2.50;99.90;;;;;;5057893;28;20044;-69
2022/01/07 02:49:11;;;;;;;25.42;12.90;;;2.60;99.90;;;;;;5037009;28;20060;-69
2022/01/07 02:51:37;;;;;;;29.73;13.32;;;2.60;99.90;;;;;;5049055;28;20053;-69
2022/01/07 02:54:05;;;;;;;20.73;12.68;;;2.60;99.90;;;;;;5036798;28;20081;-69
2022/01/07 02:56:30;;;;;;;24.50;12.82;;;2.60;99.90;;;;;;5036824;28;20059;-70
2022/01/07 02:58:56;;;;;;;23.35;13.45;;;2.50;99.90;;;;;;5038575;28;20128;-68
2022/01/07 03:01:22;;;;;;;20.30;13.55;;;2.50;99.90;;;;;;5037199;28;20079;-69
2022/01/07 03:03:47;;;;;;;29.58;14.05;;;2.60;99.90;;;;;;5040836;28;20057;-68
2022/01/07 03:06:13;;;;;;;24.80;13.98;;;2.60;99.90;;;;;;5031655;28;20044;-68
2022/01/07 03:08:39;;;;;;;24.65;13.63;;;2.80;99.90;;;;;;5024061;28;20120;-67
2022/01/07 03:11:04;;;;;;;24.75;14.23;;;2.60;99.90;;;;;;5030456;28;20111;-68
2022/01/07 03:13:30;;;;;;;25.73;14.23;;;2.50;99.90;;;;;;5056665;28;20064;-68
2022/01/07 03:15:55;;;;;;;28.85;15.07;;;2.60;99.90;;;;;;5036595;28;20136;-68
2022/01/07 03:18:21;;;;;;;25.70;14.52;;;2.60;99.90;;;;;;5021033;28;20080;-68
2022/01/07 03:20:46;;;;;;;26.10;14.45;;;2.60;99.90;;;;;;5039648;28;20361;-68
2022/01/07 03:23:12;;;;;;;21.80;15.57;;;2.60;99.90;;;;;;5036119;28;20461;-67
2022/01/07 03:25:43;;;;;;;27.77;15.80;;;2.50;99.90;;;;;;5041625;28;20103;-67
2022/01/07 03:28:10;;;;;;;23.35;15.13;;;2.60;99.90;;;;;;5037319;28;20053;-68
2022/01/07 03:30:36;;;;;;;29.42;15.65;;;2.60;99.90;;;;;;5028101;28;20050;-67
2022/01/07 03:33:03;;;;;;;27.58;15.38;;;2.60;99.90;;;;;;5055203;28;20381;-68
2022/01/07 03:35:29;;;;;;;24.00;15.02;;;2.60;99.90;;;;;;5036238;28;20416;-67
2022/01/07 03:37:55;;;;;;;26.00;14.98;;;2.60;99.90;;;;;;5037338;28;20045;-68
2022/01/07 03:40:21;;;;;;;26.08;15.10;;;2.60;99.90;;;;;;5039708;28;20056;-69
2022/01/07 03:42:47;;;;;;;26.58;15.52;;;2.60;99.90;;;;;;5057162;28;20045;-68
2022/01/07 03:45:15;;;;;;;26.40;15.85;;;2.70;99.90;;;;;;5056963;28;20065;-67
2022/01/07 03:47:40;;;;;;;25.70;15.82;;;2.70;99.90;;;;;;5035951;28;20045;-68
2022/01/07 03:50:08;;;;;;;23.50;15.20;;;2.70;99.90;;;;;;5028194;28;20469;-69
2022/01/07 03:52:35;;;;;;;24.92;15.55;;;2.70;99.90;;;;;;5055423;28;20433;-68
2022/01/07 03:55:01;;;;;;;26.17;15.27;;;2.70;99.90;;;;;;5046121;28;20519;-69
2022/01/07 03:57:27;;;;;;;26.50;16.38;;;2.70;99.90;;;;;;5038978;28;20100;-68
2022/01/07 03:59:53;;;;;;;26.70;15.30;;;2.70;99.90;;;;;;5036401;28;20469;-68
2022/01/07 04:02:19;;;;;;;26.20;15.95;;;2.70;99.90;;;;;;5019049;28;20084;-67
2022/01/07 04:04:46;;;;;;;29.08;15.57;;;2.70;99.90;;;;;;5036573;28;20056;-68
2022/01/07 04:07:11;;;;;;;26.73;16.63;;;2.70;99.90;;;;;;5019420;28;20095;-67
2022/01/07 04:09:37;;;;;;;23.42;16.50;;;2.70;99.90;;;;;;5036513;28;20061;-70
2022/01/07 04:12:03;;;;;;;26.65;16.70;;;2.70;99.90;;;;;;5018919;28;20128;-68
2022/01/07 04:14:29;;;;;;;28.05;17.38;;;2.80;99.90;;;;;;5036621;28;20402;-68
2022/01/07 04:16:55;;;;;;;30.75;16.95;;;2.80;99.90;;;;;;5034094;28;20080;-69
2022/01/07 04:19:21;;;;;;;29.25;16.60;;;2.80;99.90;;;;;;5040733;28;20060;-69
2022/01/07 04:21:49;;;;;;;29.52;17.10;;;2.80;99.90;;;;;;5035314;28;20061;-68
2022/01/07 04:24:14;;;;;;;24.92;15.75;;;2.80;99.90;;;;;;5051146;28;20456;-68
2022/01/07 04:26:40;;;;;;;21.48;15.98;;;2.80;99.90;;;;;;5020470;28;20049;-67
2022/01/07 04:29:06;;;;;;;24.13;16.10;;;2.80;99.90;;;;;;5048829;28;20049;-67
2022/01/07 04:31:31;;;;;;;23.40;15.43;;;2.80;99.90;;;;;;5022387;28;20053;-68
2022/01/07 04:33:57;;;;;;;22.45;15.07;;;2.80;99.90;;;;;;5035234;28;20053;-68
2022/01/07 04:36:22;;;;;;;22.85;15.88;;;2.80;99.90;;;;;;5034113;28;20103;-67
2022/01/07 04:38:48;;;;;;;25.27;15.77;;;2.80;99.90;;;;;;5028546;28;20056;-67
2022/01/07 04:41:13;;;;;;;21.42;14.00;;;2.80;99.90;;;;;;5038430;28;20041;-68
2022/01/07 04:43:39;;;;;;;21.83;14.20;;;2.80;99.90;;;;;;5056043;28;20124;-67
2022/01/07 04:46:05;;;;;;;23.90;15.43;;;2.80;99.90;;;;;;5021275;28;20045;-68
2022/01/07 04:48:30;;;;;;;23.10;15.23;;;2.80;99.90;;;;;;5034880;28;20476;-68
2022/01/07 04:50:56;;;;;;;23.15;14.65;;;2.80;99.90;;;;;;5036537;28;20527;-68
2022/01/07 04:53:22;;;;;;;23.25;15.68;;;2.90;99.90;;;;;;5035164;28;20504;-69
2022/01/07 04:55:48;;;;;;;24.42;14.90;;;2.90;99.90;;;;;;5059120;28;20049;-70
2022/01/07 04:58:14;;;;;;;21.80;15.13;;;2.90;99.90;;;;;;5035768;28;20076;-67
2022/01/07 05:00:42;;;;;;;26.08;15.48;;;2.90;99.90;;;;;;5036828;28;20053;-71
2022/01/07 05:03:08;;;;;;;23.73;14.68;;;2.90;99.90;;;;;;5035454;28;20055;-69
2022/01/07 05:05:34;;;;;;;23.00;13.95;;;2.90;99.90;;;;;;5034971;28;20038;-68
2022/01/07 05:08:01;;;;;;;24.33;14.60;;;2.90;99.90;;;;;;5026991;28;20408;-68
2022/01/07 05:10:27;;;;;;;23.88;14.77;;;2.90;99.90;;;;;;5053997;28;20061;-68
2022/01/07 05:12:52;;;;;;;21.23;14.32;;;2.90;99.90;;;;;;5037724;28;20420;-67
2022/01/07 05:15:19;;;;;;;25.60;14.35;;;2.90;99.90;;;;;;5037356;28;20449;-67
2022/01/07 05:17:45;;;;;;;24.45;14.65;;;3.00;99.90;;;;;;5034606;28;20072;-68
2022/01/07 05:20:13;;;;;;;21.17;14.73;;;3.00;99.90;;;;;;5017655;28;20087;-67
2022/01/07 05:22:39;;;;;;;20.67;13.95;;;3.00;99.90;;;;;;5026483;28;20049;-69
2022/01/07 05:25:06;;;;;;;22.50;13.77;;;3.00;99.90;;;;;;5047224;28;20115;-69
2022/01/07 05:27:32;;;;;;;23.05;13.82;;;3.00;99.90;;;;;;5055076;28;20135;-68
2022/01/07 05:29:57;;;;;;;20.63;12.32;;;3.00;99.90;;;;;;5054284;28;20473;-68
2022/01/07 05:32:23;;;;;;;21.77;14.38;;;3.00;99.90;;;;;;5070690;28;20033;-67
2022/01/07 05:34:48;;;;;;;25.98;14.25;;;3.00;99.90;;;;;;5054901;28;20135;-67
2022/01/07 05:37:14;;;;;;;24.02;13.52;;;3.00;99.90;;;;;;5037275;28;20449;-68
2022/01/07 05:39:40;;;;;;;19.00;13.18;;;3.00;99.90;;;;;;5037555;28;20106;-68
2022/01/07 05:42:06;;;;;;;21.23;12.50;;;3.00;99.90;;;;;;5037718;28;20056;-69
2022/01/07 05:44:32;;;;;;;19.20;12.63;;;3.00;99.90;;;;;;5038063;28;20055;-68
2022/01/07 05:46:58;;;;;;;18.98;13.35;;;3.10;99.90;;;;;;5056851;28;20045;-67
2022/01/07 05:49:23;;;;;;;19.45;12.80;;;3.10;99.90;;;;;;5075091;28;20373;-68
2022/01/07 05:51:49;;;;;;;21.25;13.63;;;3.10;99.90;;;;;;5057097;28;20460;-69
2022/01/07 05:54:15;;;;;;;16.10;11.35;;;3.10;99.90;;;;;;5057400;28;20109;-68
2022/01/07 05:56:40;;;;;;;19.77;12.93;;;3.10;99.90;;;;;;5074956;28;20055;-67
2022/01/07 05:59:06;;;;;;;20.70;13.27;;;3.10;99.90;;;;;;5074697;28;20052;-67
2022/01/07 06:01:32;;;;;;;20.65;13.32;;;3.10;99.90;;;;;;5057241;28;20491;-68
2022/01/07 06:03:57;;;;;;;21.15;14.05;;;3.10;99.90;;;;;;5057141;28;20190;-67
2022/01/07 06:06:23;;;;;;;19.88;12.23;;;3.10;99.90;;;;;;5074485;28;20049;-68
2022/01/07 06:08:48;;;;;;;17.90;13.23;;;3.10;99.90;;;;;;5074557;28;20337;-69
2022/01/07 06:11:14;;;;;;;18.88;12.50;;;3.10;99.90;;;;;;5057395;28;20418;-68
2022/01/07 06:13:40;;;;;;;18.52;12.40;;;3.10;99.90;;;;;;5056942;28;20341;-70
2022/01/07 06:16:06;;;;;;;18.13;13.27;;;3.10;99.90;;;;;;5061257;28;20052;-68
2022/01/07 06:18:32;;;;;;;20.23;12.32;;;3.10;99.90;;;;;;5054338;28;20040;-67
2022/01/07 06:20:58;;;;;;;20.15;12.35;;;3.10;99.90;;;;;;5037179;28;20037;-68
2022/01/07 06:23:23;;;;;;;17.17;12.40;;;3.10;99.90;;;;;;5037301;28;20114;-70
2022/01/07 06:25:49;;;;;;;16.40;12.70;;;3.10;99.90;;;;;;5054565;28;20056;-70
2022/01/07 06:28:16;;;;;;;18.02;12.68;;;3.10;99.90;;;;;;5036891;28;20099;-67
2022/01/07 06:30:42;;;;;;;20.95;13.00;;;3.10;99.90;;;;;;5037395;28;20084;-68
2022/01/07 06:33:08;;;;;;;20.23;13.80;;;3.10;99.90;;;;;;5054434;28;20432;-70
2022/01/07 06:35:33;;;;;;;23.92;12.75;;;3.10;99.90;;;;;;5054313;28;20365;-68
2022/01/07 06:37:59;;;;;;;18.85;13.00;;;3.10;99.90;;;;;;5054400;28;20388;-68
2022/01/07 06:40:25;;;;;;;19.58;13.30;;;3.10;99.90;;;;;;5051923;28;20048;-69
2022/01/07 06:42:51;;;;;;;19.63;13.18;;;3.20;99.90;;;;;;5040073;28;20480;-70
2022/01/07 06:45:17;;;;;;;18.63;12.88;;;3.20;99.90;;;;;;5044668;28;20104;-67
2022/01/07 06:47:43;;;;;;;17.02;12.27;;;3.20;99.90;;;;;;5062029;28;20475;-70
2022/01/07 06:50:09;;;;;;;21.33;12.27;;;3.20;99.90;;;;;;5053462;28;20048;-67
2022/01/07 06:52:35;;;;;;;17.35;12.73;;;3.20;99.90;;;;;;5049178;28;20371;-68
2022/01/07 06:55:00;;;;;;;14.77;12.05;;;3.20;99.90;;;;;;5040204;28;20056;-69
2022/01/07 06:57:26;;;;;;;18.15;12.68;;;3.20;99.90;;;;;;5046777;28;20053;-69
2022/01/07 06:59:52;;;;;;;19.25;13.30;;;3.20;99.90;;;;;;5050915;28;20048;-70
2022/01/07 07:02:18;;;;;;;19.77;12.70;;;3.20;99.90;;;;;;5057719;28;20060;-69
2022/01/07 07:04:44;;;;;;;16.80;13.32;;;3.20;99.90;;;;;;5039971;28;20044;-69
2022/01/07 07:07:10;;;;;;;22.10;13.93;;;3.20;99.90;;;;;;5040060;28;20080;-70
2022/01/07 07:09:36;;;;;;;21.23;14.65;;;3.20;99.90;;;;;;5058035;28;20126;-68
2022/01/07 07:12:02;;;;;;;23.50;14.07;;;3.30;99.90;;;;;;5040622;28;20049;-71
2022/01/07 07:14:28;;;;;;;20.13;14.02;;;3.30;99.90;;;;;;5039496;28;20459;-68
2022/01/07 07:16:54;;;;;;;20.83;13.60;;;3.30;99.90;;;;;;5057614;28;20110;-68
2022/01/07 07:19:21;;;;;;;20.70;13.57;;;3.30;99.90;;;;;;5077479;28;20052;-69
2022/01/07 07:21:47;;;;;;;19.73;13.77;;;3.30;99.90;;;;;;5077547;28;20056;-73
2022/01/07 07:24:12;;;;;;;18.98;13.35;;;3.30;99.90;;;;;;5045068;28;20136;-71
2022/01/07 07:26:38;;;;;;;23.60;14.02;;;3.30;99.90;;;;;;5038956;28;20159;-69
2022/01/07 07:29:05;;;;;;;22.10;14.68;;;3.30;99.90;;;;;;5056665;28;20059;-68
2022/01/07 07:31:31;;;;;;;17.95;13.82;;;3.40;99.90;;;;;;5056989;28;20057;-66
2022/01/07 07:34:19;;;;;;;19.23;14.15;;;3.40;99.90;;;;;;5034908;28;20141;-68
2022/01/07 07:36:44;;;;;;;21.85;15.45;;;3.40;99.90;;;;;;5048467;28;20051;-68
2022/01/07 07:39:11;;;;;;;23.35;15.50;;;3.40;99.90;;;;;;5044570;28;20049;-70
2022/01/07 07:41:39;;;;;;;21.63;15.10;;;3.50;99.90;;;;;;5019541;28;20071;-69
2022/01/07 07:44:06;;;;;;;21.75;15.95;;;3.50;99.90;;;;;;5019313;28;20041;-68
2022/01/07 07:46:33;;;;;;;19.67;15.52;;;3.50;99.90;;;;;;5019116;28;20045;-70
2022/01/07 07:49:00;;;;;;;19.90;15.07;;;3.50;99.90;;;;;;5019042;28;20046;-69
2022/01/07 07:51:26;;;;;;;24.38;15.88;;;3.50;99.90;;;;;;5039981;28;20049;-70
2022/01/07 07:53:52;;;;;;;21.67;15.65;;;3.50;99.90;;;;;;5060675;28;20136;-69
2022/01/07 07:56:18;;;;;;;21.67;15.75;;;3.50;99.90;;;;;;5038622;28;20111;-69
2022/01/07 07:58:44;;;;;;;23.90;15.38;;;3.60;99.90;;;;;;5051811;28;20055;-67
2022/01/07 08:01:11;;;;;;;25.58;16.45;;;3.60;99.90;;;;;;5055754;28;20045;-69
2022/01/07 08:03:37;;;;;;;23.50;17.30;;;3.60;99.90;;;;;;5044265;28;20050;-71
2022/01/07 08:06:03;;;;;;;25.50;16.20;;;3.60;99.90;;;;;;5066140;28;20040;-68
2022/01/07 08:08:29;;;;;;;27.92;18.10;;;3.60;99.90;;;;;;5058497;28;20044;-69
2022/01/07 08:10:58;;;;;;;28.45;18.13;;;3.60;99.90;;;;;;5075733;28;20041;-69
2022/01/07 08:16:10;;;;;;;27.20;17.88;;;3.70;99.90;;;;;;5058111;28;20056;-68
2022/01/07 08:18:38;;;;;;;29.17;18.80;;;3.70;99.90;;;;;;5058012;28;20313;-68
2022/01/07 08:21:06;;;;;;;32.30;18.60;;;3.70;99.90;;;;;;5058169;28;20052;-68
2022/01/07 08:23:34;;;;;;;28.10;18.33;;;3.70;99.90;;;;;;5058047;28;20052;-68
2022/01/07 08:26:00;;;;;;;32.75;19.08;;;3.70;99.90;;;;;;5050323;28;20045;-68
2022/01/07 08:28:31;;;;;;;29.73;20.42;;;3.80;99.90;;;;;;5074496;28;20538;-67
2022/01/07 08:36:34;;;;;;;30.40;20.02;;;3.90;99.90;;;;;;5055679;28;20049;-69
2022/01/07 08:39:00;;;;;;;31.65;20.67;;;3.90;99.90;;;;;;5038872;28;20053;-67
2022/01/07 08:41:29;;;;;;;33.28;21.63;;;3.90;99.90;;;;;;5038220;28;20096;-68
2022/01/07 08:43:55;;;;;;;38.22;22.02;;;4.00;99.90;;;;;;5033788;28;20046;-71
2022/01/07 08:46:21;;;;;;;44.70;23.23;;;4.00;99.90;;;;;;5035961;28;20176;-68
2022/01/07 08:48:47;;;;;;;32.15;21.80;;;4.00;99.90;;;;;;5018796;28;20060;-67
2022/01/07 08:51:13;;;;;;;34.45;21.90;;;4.10;99.90;;;;;;5035800;28;20045;-69
2022/01/07 08:53:39;;;;;;;37.30;22.73;;;4.10;99.90;;;;;;5035872;28;20037;-68
2022/01/07 08:56:06;;;;;;;32.72;22.38;;;4.10;99.90;;;;;;5017963;28;20045;-67
2022/01/07 08:58:32;;;;;;;37.40;22.70;;;4.10;99.90;;;;;;5032469;28;20045;-69
2022/01/07 09:00:57;;;;;;;37.58;23.52;;;4.20;99.90;;;;;;5037867;28;20036;-67
2022/01/07 09:03:23;;;;;;;36.88;22.65;;;4.20;99.90;;;;;;5037802;28;20103;-66
2022/01/07 09:05:49;;;;;;;34.28;22.40;;;4.30;99.90;;;;;;5032278;28;20046;-66
2022/01/07 09:08:15;;;;;;;37.70;23.00;;;4.30;99.90;;;;;;5033890;28;20438;-67
2022/01/07 09:10:41;;;;;;;40.15;22.80;;;4.30;99.90;;;;;;5035473;28;20053;-67
2022/01/07 09:13:08;;;;;;;38.63;24.17;;;4.30;99.90;;;;;;5034693;28;20049;-67
2022/01/07 09:15:34;;;;;;;37.35;22.70;;;4.40;99.90;;;;;;5035019;28;20063;-67
2022/01/07 09:18:00;;;;;;;37.97;22.67;;;4.40;99.90;;;;;;5018067;28;20458;-67
2022/01/07 09:20:26;;;;;;;37.00;23.20;;;4.40;99.90;;;;;;5035600;28;20049;-68
2022/01/07 09:22:53;;;;;;;36.53;23.17;;;4.40;99.90;;;;;;5020723;28;20045;-68
2022/01/07 09:25:19;;;;;;;37.13;22.80;;;4.50;99.90;;;;;;5052192;28;20048;-67
2022/01/07 09:27:45;;;;;;;47.65;24.38;;;4.50;99.90;;;;;;5054974;28;20049;-66
2022/01/07 09:30:11;;;;;;;37.20;23.23;;;4.50;99.90;;;;;;5033776;28;20466;-67
2022/01/07 09:32:38;;;;;;;35.65;22.38;;;4.50;99.90;;;;;;5023024;28;20116;-67
2022/01/07 09:35:05;;;;;;;37.90;23.50;;;4.50;99.90;;;;;;5037058;28;20060;-67
2022/01/07 09:37:31;;;;;;;31.15;21.67;;;4.60;99.90;;;;;;5037435;28;20057;-67
2022/01/07 09:40:00;;;;;;;34.35;21.83;;;4.60;99.90;;;;;;5055659;28;20376;-69
2022/01/07 09:42:26;;;;;;;34.13;22.15;;;4.70;99.90;;;;;;5037538;28;20136;-69
2022/01/07 09:44:51;;;;;;;36.17;22.13;;;4.70;99.90;;;;;;5055005;28;20045;-67
2022/01/07 09:47:17;;;;;;;41.55;21.98;;;4.80;99.90;;;;;;5054656;28;20045;-67
2022/01/07 09:49:43;;;;;;;32.33;22.60;;;4.80;99.90;;;;;;5037195;28;20059;-68
2022/01/07 09:52:09;;;;;;;39.88;21.30;;;4.90;99.90;;;;;;5057066;28;20052;-68
2022/01/07 09:54:37;;;;;;;35.10;20.83;;;4.90;99.90;;;;;;5074885;28;20060;-67
2022/01/07 09:57:04;;;;;;;36.78;22.48;;;5.00;99.90;;;;;;5055173;28;20048;-68
2022/01/07 09:59:30;;;;;;;35.15;21.88;;;5.00;99.90;;;;;;5074537;28;20360;-68
2022/01/07 10:02:00;;;;;;;33.55;20.90;;;5.00;99.90;;;;;;5057446;28;20044;-69
2022/01/07 10:04:27;;;;;;;30.15;19.75;;;5.00;99.90;;;;;;5074741;28;20060;-67
2022/01/07 10:07:22;;;;;;;30.85;16.95;;;5.00;99.90;;;;;;5057053;28;20113;-69
2022/01/07 10:10:13;;;;;;;21.10;15.10;;;4.80;99.90;;;;;;5056573;28;20070;-69
2022/01/07 10:12:51;;;;;;;25.55;15.40;;;4.80;99.90;;;;;;5057372;28;20055;-68
2022/01/07 10:15:25;;;;;;;23.42;15.88;;;4.80;99.90;;;;;;5074574;28;20076;-68
2022/01/07 10:17:58;;;;;;;25.83;16.17;;;4.80;99.90;;;;;;5057041;28;20079;-68
2022/01/07 10:20:26;;;;;;;23.52;15.18;;;4.70;99.90;;;;;;5050927;28;20059;-68
2022/01/07 10:22:55;;;;;;;23.50;14.73;;;4.80;99.90;;;;;;5037099;28;20055;-67
2022/01/07 10:25:24;;;;;;;15.48;10.27;;;4.70;99.90;;;;;;5041198;28;20053;-68
2022/01/07 10:27:50;;;;;;;15.57;11.18;;;4.70;99.90;;;;;;5041143;28;20052;-67
2022/01/07 10:30:25;;;;;;;22.02;10.95;;;4.70;99.90;;;;;;5040795;28;20048;-67
2022/01/07 10:32:55;;;;;;;21.00;11.73;;;4.70;99.90;;;;;;5041335;28;20052;-68
2022/01/07 10:35:25;;;;;;;17.35;8.65;;;4.80;99.90;;;;;;5058608;28;20052;-67
2022/01/07 10:37:57;;;;;;;11.88;8.07;;;4.80;99.90;;;;;;5058068;28;20347;-67
2022/01/07 10:40:30;;;;;;;11.73;6.47;;;4.90;99.90;;;;;;5040540;28;20462;-67
2022/01/07 10:43:09;;;;;;;9.23;5.75;;;4.90;99.90;;;;;;5058215;28;20056;-67
2022/01/07 10:45:36;;;;;;;8.90;4.57;;;5.00;99.90;;;;;;5058525;28;20076;-67
2022/01/07 10:48:02;;;;;;;11.20;4.20;;;5.10;99.90;;;;;;5058212;28;20037;-67
2022/01/07 10:50:29;;;;;;;6.97;2.72;;;5.10;99.90;;;;;;5064785;28;20097;-68
2022/01/07 10:53:16;;;;;;;4.80;2.83;;;5.00;99.90;;;;;;5051584;28;20115;-67
2022/01/07 10:55:58;;;;;;;5.40;2.60;;;5.00;99.90;;;;;;5038267;28;20057;-68
2022/01/07 10:58:24;;;;;;;5.90;3.20;;;4.90;99.90;;;;;;5020936;28;20045;-69
2022/01/07 11:00:51;;;;;;;5.20;4.05;;;4.90;99.90;;;;;;5038016;28;20103;-68
2022/01/07 11:03:16;;;;;;;8.02;4.60;;;4.80;99.90;;;;;;5037841;28;20050;-68
2022/01/07 11:05:42;;;;;;;9.23;5.07;;;4.90;99.90;;;;;;5045751;28;20063;-67
2022/01/07 11:08:08;;;;;;;12.65;6.07;;;5.00;99.90;;;;;;5058983;28;20094;-69
2022/01/07 11:10:36;;;;;;;12.05;6.18;;;5.00;99.90;;;;;;5058473;28;20115;-67
2022/01/07 11:13:03;;;;;;;9.63;5.10;;;4.90;99.90;;;;;;5036133;28;20050;-68
2022/01/07 11:15:28;;;;;;;10.57;6.10;;;4.90;99.90;;;;;;5056432;28;20045;-68
2022/01/07 11:17:54;;;;;;;10.45;5.72;;;4.90;99.90;;;;;;5057030;28;20346;-68
2022/01/07 11:20:24;;;;;;;10.80;6.05;;;4.90;99.90;;;;;;5038657;28;20068;-67
2022/01/07 11:22:51;;;;;;;10.25;7.18;;;4.90;99.90;;;;;;5039540;28;20073;-67
2022/01/07 11:25:17;;;;;;;12.05;6.93;;;4.90;99.90;;;;;;5036580;28;20404;-67
2022/01/07 11:27:51;;;;;;;16.17;7.50;;;4.90;99.90;;;;;;5055926;28;20126;-68
2022/01/07 11:30:19;;;;;;;14.13;7.93;;;4.90;99.90;;;;;;5036235;28;20102;-67
2022/01/07 11:32:49;;;;;;;16.30;9.40;;;4.90;99.90;;;;;;5040210;28;20057;-68
2022/01/07 11:35:21;;;;;;;17.33;9.15;;;4.90;99.90;;;;;;5036741;28;20460;-68
2022/01/07 11:37:50;;;;;;;16.83;9.07;;;4.90;99.90;;;;;;5039654;28;20049;-68
2022/01/07 11:40:39;;;;;;;17.98;9.38;;;4.90;99.90;;;;;;5057440;28;20049;-67
2022/01/07 11:43:24;;;;;;;18.05;9.73;;;4.80;99.90;;;;;;5056992;28;20052;-69
2022/01/07 11:45:50;;;;;;;22.27;10.82;;;4.80;99.90;;;;;;5057306;28;20186;-69
2022/01/07 11:48:20;;;;;;;17.60;9.70;;;4.80;99.90;;;;;;5056765;28;20045;-67
2022/01/07 11:50:46;;;;;;;21.13;11.13;;;4.80;99.90;;;;;;5052235;28;20056;-69
2022/01/07 11:53:13;;;;;;;19.45;11.52;;;4.90;99.90;;;;;;5045016;28;20110;-67
2022/01/07 11:55:40;;;;;;;20.23;11.77;;;4.70;99.90;;;;;;5033880;28;20071;-66
2022/01/07 11:58:08;;;;;;;24.92;12.63;;;4.70;99.90;;;;;;5041051;28;20053;-68
2022/01/07 12:00:55;;;;;;;19.50;11.93;;;4.60;99.90;;;;;;5036724;28;20335;-68
2022/01/07 12:03:43;;;;;;;25.73;13.77;;;4.60;99.90;;;;;;5036732;28;20042;-66
2022/01/07 12:06:21;;;;;;;35.45;15.55;;;4.60;99.90;;;;;;5045015;28;20369;-68
2022/01/07 12:09:21;;;;;;;24.77;13.75;;;4.70;99.90;;;;;;5035521;28;20069;-67
2022/01/07 12:12:00;;;;;;;26.55;13.95;;;4.70;99.90;;;;;;5049431;28;20057;-68
2022/01/07 12:14:39;;;;;;;23.65;14.05;;;4.70;99.90;;;;;;5056588;28;20067;-70
2022/01/07 12:17:08;;;;;;;29.17;14.88;;;4.70;99.90;;;;;;5056250;28;20048;-67
2022/01/07 12:20:17;;;;;;;25.67;15.32;;;4.80;99.90;;;;;;5040318;28;20044;-68
2022/01/07 12:22:47;;;;;;;25.83;14.27;;;4.80;99.90;;;;;;5030473;28;20469;-70
2022/01/07 12:25:13;;;;;;;26.75;15.82;;;4.90;99.90;;;;;;5056103;28;20055;-68
2022/01/07 12:27:38;;;;;;;27.60;14.68;;;5.00;99.90;;;;;;5036728;28;20042;-67
2022/01/07 12:30:04;;;;;;;28.48;14.27;;;5.00;99.90;;;;;;5055907;28;20049;-67
2022/01/07 12:32:36;;;;;;;15.70;8.43;;;5.00;99.90;;;;;;5018145;28;20085;-69
2022/01/07 12:35:04;;;;;;;12.60;5.47;;;5.10;99.90;;;;;;5034333;28;20377;-69
2022/01/07 12:37:31;;;;;;;13.52;6.50;;;5.00;99.90;;;;;;5015143;28;20061;-70
2022/01/07 12:39:59;;;;;;;16.65;7.55;;;4.90;99.90;;;;;;5035219;28;20088;-68
2022/01/07 12:42:26;;;;;;;15.32;7.60;;;4.90;99.90;;;;;;5033083;28;20046;-69
2022/01/07 12:44:57;;;;;;;10.10;5.50;;;4.90;99.90;;;;;;5034719;28;20049;-67
2022/01/07 12:47:29;;;;;;;13.27;5.35;;;4.80;99.90;;;;;;5033813;28;20045;-69
2022/01/07 12:50:01;;;;;;;8.75;3.55;;;4.80;99.90;;;;;;5045704;28;20177;-67